sensor_id;sensor_type;location;lat;lon;timestamp;P1;durP1;ratioP1;P2;durP2;ratioP2
9080;SDS011;13509;50.760;6.080;2024-02-15T00:01:28;12.23;;;4.97;;
9080;SDS011;13509;50.760;6.080;2024-02-15T00:03:58;7.63;;;4.27;;
9080;SDS011;13509;50.760;6.080;2024-02-15T00:06:26;13.53;;;5.07;;
9080;SDS011;13509;50.760;6.080;2024-02-15T00:08:54;10.27;;;4.93;;
9080;SDS011;13509;50.760;6.080;2024-02-15T00:11:23;9.07;;;4.83;;
9080;SDS011;13509;50.760;6.080;2024-02-15T00:13:51;11.07;;;4.50;;
9080;SDS011;13509;50.760;6.080;2024-02-15T00:16:20;15.77;;;6.03;;
9080;SDS011;13509;50.760;6.080;2024-02-15T00:18:48;11.77;;;5.27;;
9080;SDS011;13509;50.760;6.080;2024-02-15T00:21:18;14.93;;;5.30;;
9080;SDS011;13509;50.760;6.080;2024-02-15T00:23:46;10.93;;;4.43;;
9080;SDS011;13509;50.760;6.080;2024-02-15T00:26:15;8.00;;;4.33;;
9080;SDS011;13509;50.760;6.080;2024-02-15T00:28:43;9.20;;;4.80;;
9080;SDS011;13509;50.760;6.080;2024-02-15T00:31:12;8.50;;;5.03;;
9080;SDS011;13509;50.760;6.080;2024-02-15T00:33:40;10.70;;;4.60;;
9080;SDS011;13509;50.760;6.080;2024-02-15T00:36:09;11.63;;;4.57;;
9080;SDS011;13509;50.760;6.080;2024-02-15T00:38:40;11.47;;;4.70;;
9080;SDS011;13509;50.760;6.080;2024-02-15T00:41:10;12.13;;;4.70;;
9080;SDS011;13509;50.760;6.080;2024-02-15T00:43:39;8.67;;;4.40;;
9080;SDS011;13509;50.760;6.080;2024-02-15T00:46:07;10.70;;;5.37;;
9080;SDS011;13509;50.760;6.080;2024-02-15T00:48:36;8.70;;;4.10;;
9080;SDS011;13509;50.760;6.080;2024-02-15T00:51:05;9.30;;;4.10;;
9080;SDS011;13509;50.760;6.080;2024-02-15T00:53:33;8.50;;;4.47;;
9080;SDS011;13509;50.760;6.080;2024-02-15T00:56:04;11.17;;;5.07;;
9080;SDS011;13509;50.760;6.080;2024-02-15T00:58:33;10.63;;;4.23;;
9080;SDS011;13509;50.760;6.080;2024-02-15T01:01:01;7.50;;;3.63;;
9080;SDS011;13509;50.760;6.080;2024-02-15T01:03:30;10.93;;;5.10;;
9080;SDS011;13509;50.760;6.080;2024-02-15T01:05:58;9.97;;;4.30;;
9080;SDS011;13509;50.760;6.080;2024-02-15T01:08:27;11.73;;;3.57;;
9080;SDS011;13509;50.760;6.080;2024-02-15T01:10:55;8.13;;;3.60;;
9080;SDS011;13509;50.760;6.080;2024-02-15T01:13:25;9.77;;;3.50;;
9080;SDS011;13509;50.760;6.080;2024-02-15T01:15:53;6.87;;;4.00;;
9080;SDS011;13509;50.760;6.080;2024-02-15T01:18:22;6.30;;;3.43;;
9080;SDS011;13509;50.760;6.080;2024-02-15T01:20:50;11.63;;;3.93;;
9080;SDS011;13509;50.760;6.080;2024-02-15T01:23:20;8.47;;;3.93;;
9080;SDS011;13509;50.760;6.080;2024-02-15T01:25:49;7.83;;;3.77;;
9080;SDS011;13509;50.760;6.080;2024-02-15T01:28:18;7.77;;;3.43;;
9080;SDS011;13509;50.760;6.080;2024-02-15T01:30:48;11.37;;;3.30;;
9080;SDS011;13509;50.760;6.080;2024-02-15T01:33:16;9.70;;;3.27;;
9080;SDS011;13509;50.760;6.080;2024-02-15T01:35:45;10.23;;;3.50;;
9080;SDS011;13509;50.760;6.080;2024-02-15T01:38:14;8.23;;;3.53;;
9080;SDS011;13509;50.760;6.080;2024-02-15T01:40:43;7.00;;;3.40;;
9080;SDS011;13509;50.760;6.080;2024-02-15T01:43:11;7.90;;;3.20;;
9080;SDS011;13509;50.760;6.080;2024-02-15T01:45:39;8.97;;;3.23;;
9080;SDS011;13509;50.760;6.080;2024-02-15T01:48:09;10.73;;;3.40;;
9080;SDS011;13509;50.760;6.080;2024-02-15T01:50:38;12.57;;;3.30;;
9080;SDS011;13509;50.760;6.080;2024-02-15T01:53:08;7.63;;;2.90;;
9080;SDS011;13509;50.760;6.080;2024-02-15T01:55:37;8.33;;;3.07;;
9080;SDS011;13509;50.760;6.080;2024-02-15T01:58:06;7.53;;;2.87;;
9080;SDS011;13509;50.760;6.080;2024-02-15T02:00:35;9.13;;;3.40;;
9080;SDS011;13509;50.760;6.080;2024-02-15T02:03:06;7.70;;;2.47;;
9080;SDS011;13509;50.760;6.080;2024-02-15T02:05:36;10.27;;;2.77;;
9080;SDS011;13509;50.760;6.080;2024-02-15T02:08:04;7.97;;;2.80;;
9080;SDS011;13509;50.760;6.080;2024-02-15T02:10:36;5.73;;;2.20;;
9080;SDS011;13509;50.760;6.080;2024-02-15T02:13:04;11.13;;;2.37;;
9080;SDS011;13509;50.760;6.080;2024-02-15T02:15:33;6.90;;;2.27;;
9080;SDS011;13509;50.760;6.080;2024-02-15T02:18:03;8.13;;;2.07;;
9080;SDS011;13509;50.760;6.080;2024-02-15T02:20:33;6.37;;;3.00;;
9080;SDS011;13509;50.760;6.080;2024-02-15T02:23:04;9.07;;;2.67;;
9080;SDS011;13509;50.760;6.080;2024-02-15T02:25:37;9.07;;;2.33;;
9080;SDS011;13509;50.760;6.080;2024-02-15T02:28:06;7.53;;;2.27;;
9080;SDS011;13509;50.760;6.080;2024-02-15T02:30:35;4.70;;;2.17;;
9080;SDS011;13509;50.760;6.080;2024-02-15T02:33:03;9.40;;;2.57;;
9080;SDS011;13509;50.760;6.080;2024-02-15T02:35:33;7.37;;;1.90;;
9080;SDS011;13509;50.760;6.080;2024-02-15T02:38:03;7.30;;;2.20;;
9080;SDS011;13509;50.760;6.080;2024-02-15T02:40:31;5.53;;;1.70;;
9080;SDS011;13509;50.760;6.080;2024-02-15T02:43:01;4.83;;;1.83;;
9080;SDS011;13509;50.760;6.080;2024-02-15T02:45:30;2.43;;;2.00;;
9080;SDS011;13509;50.760;6.080;2024-02-15T02:47:58;11.37;;;2.13;;
9080;SDS011;13509;50.760;6.080;2024-02-15T02:50:27;6.10;;;2.30;;
9080;SDS011;13509;50.760;6.080;2024-02-15T02:52:55;6.53;;;2.00;;
9080;SDS011;13509;50.760;6.080;2024-02-15T02:55:24;5.17;;;2.30;;
9080;SDS011;13509;50.760;6.080;2024-02-15T02:57:54;7.33;;;1.83;;
9080;SDS011;13509;50.760;6.080;2024-02-15T03:00:23;6.60;;;1.90;;
9080;SDS011;13509;50.760;6.080;2024-02-15T03:02:54;7.37;;;2.83;;
9080;SDS011;13509;50.760;6.080;2024-02-15T03:05:23;5.43;;;1.77;;
9080;SDS011;13509;50.760;6.080;2024-02-15T03:07:52;7.23;;;1.97;;
9080;SDS011;13509;50.760;6.080;2024-02-15T03:10:20;8.57;;;2.03;;
9080;SDS011;13509;50.760;6.080;2024-02-15T03:12:50;9.23;;;2.13;;
9080;SDS011;13509;50.760;6.080;2024-02-15T03:15:19;6.47;;;2.10;;
9080;SDS011;13509;50.760;6.080;2024-02-15T03:17:50;5.57;;;2.20;;
9080;SDS011;13509;50.760;6.080;2024-02-15T03:20:19;5.37;;;1.63;;
9080;SDS011;13509;50.760;6.080;2024-02-15T03:22:51;4.63;;;1.93;;
9080;SDS011;13509;50.760;6.080;2024-02-15T03:25:20;4.43;;;1.80;;
9080;SDS011;13509;50.760;6.080;2024-02-15T03:27:50;4.70;;;1.93;;
9080;SDS011;13509;50.760;6.080;2024-02-15T03:30:19;6.50;;;2.00;;
9080;SDS011;13509;50.760;6.080;2024-02-15T03:32:47;4.43;;;1.83;;
9080;SDS011;13509;50.760;6.080;2024-02-15T03:35:19;5.87;;;2.10;;
9080;SDS011;13509;50.760;6.080;2024-02-15T03:37:49;7.80;;;2.40;;
9080;SDS011;13509;50.760;6.080;2024-02-15T03:40:20;7.13;;;2.30;;
9080;SDS011;13509;50.760;6.080;2024-02-15T03:42:54;6.07;;;1.83;;
9080;SDS011;13509;50.760;6.080;2024-02-15T03:45:24;4.73;;;1.80;;
9080;SDS011;13509;50.760;6.080;2024-02-15T03:47:53;3.93;;;1.70;;
9080;SDS011;13509;50.760;6.080;2024-02-15T03:50:24;7.50;;;1.93;;
9080;SDS011;13509;50.760;6.080;2024-02-15T03:52:53;7.47;;;2.10;;
9080;SDS011;13509;50.760;6.080;2024-02-15T03:55:22;5.13;;;2.00;;
9080;SDS011;13509;50.760;6.080;2024-02-15T03:57:51;6.00;;;1.93;;
9080;SDS011;13509;50.760;6.080;2024-02-15T04:00:21;7.47;;;2.20;;
9080;SDS011;13509;50.760;6.080;2024-02-15T04:02:51;5.53;;;2.30;;
9080;SDS011;13509;50.760;6.080;2024-02-15T04:05:20;3.13;;;1.67;;
9080;SDS011;13509;50.760;6.080;2024-02-15T04:07:50;6.93;;;2.57;;
9080;SDS011;13509;50.760;6.080;2024-02-15T04:10:19;5.53;;;1.90;;
9080;SDS011;13509;50.760;6.080;2024-02-15T04:12:48;3.87;;;1.60;;
9080;SDS011;13509;50.760;6.080;2024-02-15T04:15:16;6.67;;;1.93;;
9080;SDS011;13509;50.760;6.080;2024-02-15T04:17:45;9.37;;;2.63;;
9080;SDS011;13509;50.760;6.080;2024-02-15T04:20:13;3.97;;;2.00;;
9080;SDS011;13509;50.760;6.080;2024-02-15T04:22:43;3.70;;;1.60;;
9080;SDS011;13509;50.760;6.080;2024-02-15T04:25:15;7.53;;;1.83;;
9080;SDS011;13509;50.760;6.080;2024-02-15T04:27:45;8.10;;;3.10;;
9080;SDS011;13509;50.760;6.080;2024-02-15T04:30:14;6.13;;;1.80;;
9080;SDS011;13509;50.760;6.080;2024-02-15T04:32:43;7.10;;;2.17;;
9080;SDS011;13509;50.760;6.080;2024-02-15T04:35:13;7.13;;;2.03;;
9080;SDS011;13509;50.760;6.080;2024-02-15T04:37:42;2.63;;;1.90;;
9080;SDS011;13509;50.760;6.080;2024-02-15T04:40:10;4.50;;;1.67;;
9080;SDS011;13509;50.760;6.080;2024-02-15T04:42:41;3.70;;;1.60;;
9080;SDS011;13509;50.760;6.080;2024-02-15T04:45:12;4.83;;;1.80;;
9080;SDS011;13509;50.760;6.080;2024-02-15T04:47:42;2.33;;;1.60;;
9080;SDS011;13509;50.760;6.080;2024-02-15T04:50:12;4.67;;;1.77;;
9080;SDS011;13509;50.760;6.080;2024-02-15T04:52:41;5.10;;;1.80;;
9080;SDS011;13509;50.760;6.080;2024-02-15T04:55:12;5.73;;;1.87;;
9080;SDS011;13509;50.760;6.080;2024-02-15T04:57:43;4.37;;;1.77;;
9080;SDS011;13509;50.760;6.080;2024-02-15T05:00:14;4.73;;;1.80;;
9080;SDS011;13509;50.760;6.080;2024-02-15T05:02:43;4.10;;;1.70;;
9080;SDS011;13509;50.760;6.080;2024-02-15T05:05:12;4.63;;;1.90;;
9080;SDS011;13509;50.760;6.080;2024-02-15T05:07:41;3.03;;;1.43;;
9080;SDS011;13509;50.760;6.080;2024-02-15T05:10:09;6.13;;;1.83;;
9080;SDS011;13509;50.760;6.080;2024-02-15T05:12:38;4.03;;;1.50;;
9080;SDS011;13509;50.760;6.080;2024-02-15T05:15:09;3.30;;;1.70;;
9080;SDS011;13509;50.760;6.080;2024-02-15T05:17:39;4.53;;;2.00;;
9080;SDS011;13509;50.760;6.080;2024-02-15T05:20:09;2.87;;;1.47;;
9080;SDS011;13509;50.760;6.080;2024-02-15T05:22:40;4.97;;;1.50;;
9080;SDS011;13509;50.760;6.080;2024-02-15T05:25:16;3.10;;;1.50;;
9080;SDS011;13509;50.760;6.080;2024-02-15T05:27:50;4.40;;;2.30;;
9080;SDS011;13509;50.760;6.080;2024-02-15T05:30:22;5.57;;;1.70;;
9080;SDS011;13509;50.760;6.080;2024-02-15T05:32:50;2.83;;;1.70;;
9080;SDS011;13509;50.760;6.080;2024-02-15T05:35:21;4.20;;;1.60;;
9080;SDS011;13509;50.760;6.080;2024-02-15T05:37:50;3.20;;;1.43;;
9080;SDS011;13509;50.760;6.080;2024-02-15T05:40:19;4.60;;;1.60;;
9080;SDS011;13509;50.760;6.080;2024-02-15T05:42:48;10.33;;;1.83;;
9080;SDS011;13509;50.760;6.080;2024-02-15T05:45:30;3.20;;;1.40;;
9080;SDS011;13509;50.760;6.080;2024-02-15T05:48:04;5.10;;;1.67;;
9080;SDS011;13509;50.760;6.080;2024-02-15T05:50:35;6.53;;;1.53;;
9080;SDS011;13509;50.760;6.080;2024-02-15T05:53:04;6.93;;;1.70;;
9080;SDS011;13509;50.760;6.080;2024-02-15T05:55:34;6.33;;;1.87;;
9080;SDS011;13509;50.760;6.080;2024-02-15T05:58:04;5.97;;;1.63;;
9080;SDS011;13509;50.760;6.080;2024-02-15T06:00:36;6.43;;;2.10;;
9080;SDS011;13509;50.760;6.080;2024-02-15T06:03:07;4.80;;;1.73;;
9080;SDS011;13509;50.760;6.080;2024-02-15T06:05:37;3.03;;;1.53;;
9080;SDS011;13509;50.760;6.080;2024-02-15T06:08:06;3.90;;;1.40;;
9080;SDS011;13509;50.760;6.080;2024-02-15T06:10:34;3.43;;;1.53;;
9080;SDS011;13509;50.760;6.080;2024-02-15T06:13:03;3.70;;;1.60;;
9080;SDS011;13509;50.760;6.080;2024-02-15T06:15:31;5.40;;;1.80;;
9080;SDS011;13509;50.760;6.080;2024-02-15T06:18:01;5.10;;;1.50;;
9080;SDS011;13509;50.760;6.080;2024-02-15T06:20:35;6.00;;;1.30;;
9080;SDS011;13509;50.760;6.080;2024-02-15T06:23:06;3.20;;;1.50;;
9080;SDS011;13509;50.760;6.080;2024-02-15T06:25:34;5.20;;;1.50;;
9080;SDS011;13509;50.760;6.080;2024-02-15T06:28:03;3.53;;;1.33;;
9080;SDS011;13509;50.760;6.080;2024-02-15T06:30:39;3.47;;;1.40;;
9080;SDS011;13509;50.760;6.080;2024-02-15T06:33:27;7.17;;;1.60;;
9080;SDS011;13509;50.760;6.080;2024-02-15T06:36:13;4.80;;;1.30;;
9080;SDS011;13509;50.760;6.080;2024-02-15T06:38:59;3.30;;;1.63;;
9080;SDS011;13509;50.760;6.080;2024-02-15T06:41:45;4.40;;;1.30;;
9080;SDS011;13509;50.760;6.080;2024-02-15T06:44:13;2.47;;;1.40;;
9080;SDS011;13509;50.760;6.080;2024-02-15T06:46:41;3.07;;;1.20;;
9080;SDS011;13509;50.760;6.080;2024-02-15T06:49:11;4.80;;;1.30;;
9080;SDS011;13509;50.760;6.080;2024-02-15T06:51:40;4.10;;;1.37;;
9080;SDS011;13509;50.760;6.080;2024-02-15T06:54:11;3.97;;;1.23;;
9080;SDS011;13509;50.760;6.080;2024-02-15T06:56:39;2.60;;;1.30;;
9080;SDS011;13509;50.760;6.080;2024-02-15T06:59:08;4.27;;;1.40;;
9080;SDS011;13509;50.760;6.080;2024-02-15T07:01:39;2.60;;;1.43;;
9080;SDS011;13509;50.760;6.080;2024-02-15T07:04:08;4.70;;;1.70;;
9080;SDS011;13509;50.760;6.080;2024-02-15T07:06:38;2.90;;;1.30;;
9080;SDS011;13509;50.760;6.080;2024-02-15T07:09:11;3.10;;;1.27;;
9080;SDS011;13509;50.760;6.080;2024-02-15T07:11:41;3.27;;;1.37;;
9080;SDS011;13509;50.760;6.080;2024-02-15T07:14:12;2.47;;;1.33;;
9080;SDS011;13509;50.760;6.080;2024-02-15T07:16:44;2.87;;;1.13;;
9080;SDS011;13509;50.760;6.080;2024-02-15T07:19:12;3.27;;;1.60;;
9080;SDS011;13509;50.760;6.080;2024-02-15T07:21:43;3.63;;;1.30;;
9080;SDS011;13509;50.760;6.080;2024-02-15T07:24:13;4.43;;;1.30;;
9080;SDS011;13509;50.760;6.080;2024-02-15T07:26:41;4.93;;;1.30;;
9080;SDS011;13509;50.760;6.080;2024-02-15T07:29:10;3.90;;;1.30;;
9080;SDS011;13509;50.760;6.080;2024-02-15T07:31:41;6.67;;;1.67;;
9080;SDS011;13509;50.760;6.080;2024-02-15T07:34:10;4.40;;;1.20;;
9080;SDS011;13509;50.760;6.080;2024-02-15T07:36:38;4.90;;;1.37;;
9080;SDS011;13509;50.760;6.080;2024-02-15T07:39:09;4.17;;;1.50;;
9080;SDS011;13509;50.760;6.080;2024-02-15T07:41:45;2.87;;;1.30;;
9080;SDS011;13509;50.760;6.080;2024-02-15T07:44:14;5.40;;;1.50;;
9080;SDS011;13509;50.760;6.080;2024-02-15T07:46:42;3.03;;;1.40;;
9080;SDS011;13509;50.760;6.080;2024-02-15T07:49:11;2.83;;;1.47;;
9080;SDS011;13509;50.760;6.080;2024-02-15T07:51:39;2.23;;;1.20;;
9080;SDS011;13509;50.760;6.080;2024-02-15T07:54:09;4.00;;;1.10;;
9080;SDS011;13509;50.760;6.080;2024-02-15T07:56:38;3.97;;;1.47;;
9080;SDS011;13509;50.760;6.080;2024-02-15T07:59:06;6.13;;;1.73;;
9080;SDS011;13509;50.760;6.080;2024-02-15T08:01:35;2.13;;;1.30;;
9080;SDS011;13509;50.760;6.080;2024-02-15T08:04:03;4.97;;;1.43;;
9080;SDS011;13509;50.760;6.080;2024-02-15T08:06:31;2.07;;;1.20;;
9080;SDS011;13509;50.760;6.080;2024-02-15T08:09:00;3.63;;;1.40;;
9080;SDS011;13509;50.760;6.080;2024-02-15T08:11:32;4.43;;;2.23;;
9080;SDS011;13509;50.760;6.080;2024-02-15T08:14:01;2.77;;;1.30;;
9080;SDS011;13509;50.760;6.080;2024-02-15T08:16:29;6.70;;;1.63;;
9080;SDS011;13509;50.760;6.080;2024-02-15T08:18:58;3.80;;;1.40;;
9080;SDS011;13509;50.760;6.080;2024-02-15T08:21:27;2.73;;;1.27;;
9080;SDS011;13509;50.760;6.080;2024-02-15T08:23:59;3.07;;;1.20;;
9080;SDS011;13509;50.760;6.080;2024-02-15T08:26:35;3.07;;;1.20;;
9080;SDS011;13509;50.760;6.080;2024-02-15T08:29:04;2.87;;;1.30;;
9080;SDS011;13509;50.760;6.080;2024-02-15T08:31:33;3.00;;;1.40;;
9080;SDS011;13509;50.760;6.080;2024-02-15T08:34:01;4.03;;;1.30;;
9080;SDS011;13509;50.760;6.080;2024-02-15T08:36:32;5.43;;;1.33;;
9080;SDS011;13509;50.760;6.080;2024-02-15T08:39:00;3.43;;;1.37;;
9080;SDS011;13509;50.760;6.080;2024-02-15T08:41:30;3.90;;;1.40;;
9080;SDS011;13509;50.760;6.080;2024-02-15T08:44:00;3.47;;;1.50;;
9080;SDS011;13509;50.760;6.080;2024-02-15T08:46:32;3.63;;;1.20;;
9080;SDS011;13509;50.760;6.080;2024-02-15T08:49:02;3.30;;;1.17;;
9080;SDS011;13509;50.760;6.080;2024-02-15T08:51:30;4.73;;;1.43;;
9080;SDS011;13509;50.760;6.080;2024-02-15T08:54:00;2.90;;;1.40;;
9080;SDS011;13509;50.760;6.080;2024-02-15T08:56:28;1.83;;;1.17;;
9080;SDS011;13509;50.760;6.080;2024-02-15T08:58:56;4.57;;;1.53;;
9080;SDS011;13509;50.760;6.080;2024-02-15T09:01:31;5.57;;;1.50;;
9080;SDS011;13509;50.760;6.080;2024-02-15T09:04:00;1.80;;;1.10;;
9080;SDS011;13509;50.760;6.080;2024-02-15T09:06:29;3.33;;;1.13;;
9080;SDS011;13509;50.760;6.080;2024-02-15T09:08:57;5.20;;;1.33;;
9080;SDS011;13509;50.760;6.080;2024-02-15T09:11:28;6.93;;;1.47;;
9080;SDS011;13509;50.760;6.080;2024-02-15T09:13:56;3.83;;;1.40;;
9080;SDS011;13509;50.760;6.080;2024-02-15T09:16:24;1.53;;;1.00;;
9080;SDS011;13509;50.760;6.080;2024-02-15T09:18:54;3.43;;;1.33;;
9080;SDS011;13509;50.760;6.080;2024-02-15T09:21:27;2.47;;;1.37;;
9080;SDS011;13509;50.760;6.080;2024-02-15T09:23:56;2.73;;;1.40;;
9080;SDS011;13509;50.760;6.080;2024-02-15T09:26:24;2.07;;;1.60;;
9080;SDS011;13509;50.760;6.080;2024-02-15T09:28:53;2.03;;;1.00;;
9080;SDS011;13509;50.760;6.080;2024-02-15T09:31:22;3.83;;;1.20;;
9080;SDS011;13509;50.760;6.080;2024-02-15T09:33:51;2.30;;;1.07;;
9080;SDS011;13509;50.760;6.080;2024-02-15T09:36:22;2.23;;;1.07;;
9080;SDS011;13509;50.760;6.080;2024-02-15T09:38:50;3.83;;;1.37;;
9080;SDS011;13509;50.760;6.080;2024-02-15T09:41:19;1.93;;;1.10;;
9080;SDS011;13509;50.760;6.080;2024-02-15T09:43:47;2.87;;;1.10;;
9080;SDS011;13509;50.760;6.080;2024-02-15T09:46:16;3.63;;;1.10;;
9080;SDS011;13509;50.760;6.080;2024-02-15T09:48:44;2.30;;;1.00;;
9080;SDS011;13509;50.760;6.080;2024-02-15T09:51:16;2.57;;;1.20;;
9080;SDS011;13509;50.760;6.080;2024-02-15T09:53:47;4.60;;;1.57;;
9080;SDS011;13509;50.760;6.080;2024-02-15T09:56:16;2.50;;;1.30;;
9080;SDS011;13509;50.760;6.080;2024-02-15T09:58:44;1.80;;;0.90;;
9080;SDS011;13509;50.760;6.080;2024-02-15T10:01:12;4.17;;;1.10;;
9080;SDS011;13509;50.760;6.080;2024-02-15T10:03:41;3.87;;;1.20;;
9080;SDS011;13509;50.760;6.080;2024-02-15T10:06:09;2.40;;;0.90;;
9080;SDS011;13509;50.760;6.080;2024-02-15T10:08:38;2.30;;;1.00;;
9080;SDS011;13509;50.760;6.080;2024-02-15T10:11:08;2.80;;;1.20;;
9080;SDS011;13509;50.760;6.080;2024-02-15T10:13:37;5.40;;;1.60;;
9080;SDS011;13509;50.760;6.080;2024-02-15T10:16:15;3.27;;;1.47;;
9080;SDS011;13509;50.760;6.080;2024-02-15T10:18:44;2.27;;;1.20;;
9080;SDS011;13509;50.760;6.080;2024-02-15T10:21:24;2.43;;;1.07;;
9080;SDS011;13509;50.760;6.080;2024-02-15T10:24:03;1.80;;;1.00;;
9080;SDS011;13509;50.760;6.080;2024-02-15T10:26:34;2.67;;;1.20;;
9080;SDS011;13509;50.760;6.080;2024-02-15T10:29:06;3.87;;;1.20;;
9080;SDS011;13509;50.760;6.080;2024-02-15T10:31:37;2.67;;;1.30;;
9080;SDS011;13509;50.760;6.080;2024-02-15T10:34:07;2.63;;;1.00;;
9080;SDS011;13509;50.760;6.080;2024-02-15T10:36:36;3.20;;;1.20;;
9080;SDS011;13509;50.760;6.080;2024-02-15T10:39:12;1.53;;;1.00;;
9080;SDS011;13509;50.760;6.080;2024-02-15T10:41:49;2.00;;;1.20;;
9080;SDS011;13509;50.760;6.080;2024-02-15T10:44:20;2.33;;;1.07;;
9080;SDS011;13509;50.760;6.080;2024-02-15T10:46:49;3.27;;;1.47;;
9080;SDS011;13509;50.760;6.080;2024-02-15T10:49:18;2.77;;;1.10;;
9080;SDS011;13509;50.760;6.080;2024-02-15T10:51:50;4.13;;;1.10;;
9080;SDS011;13509;50.760;6.080;2024-02-15T10:54:23;3.70;;;1.40;;
9080;SDS011;13509;50.760;6.080;2024-02-15T10:56:56;5.27;;;1.20;;
9080;SDS011;13509;50.760;6.080;2024-02-15T10:59:28;3.80;;;1.40;;
9080;SDS011;13509;50.760;6.080;2024-02-15T11:01:59;2.87;;;1.17;;
9080;SDS011;13509;50.760;6.080;2024-02-15T11:04:31;2.97;;;1.13;;
9080;SDS011;13509;50.760;6.080;2024-02-15T11:07:00;1.50;;;1.17;;
9080;SDS011;13509;50.760;6.080;2024-02-15T11:09:29;2.70;;;1.10;;
9080;SDS011;13509;50.760;6.080;2024-02-15T11:11:59;4.10;;;1.10;;
9080;SDS011;13509;50.760;6.080;2024-02-15T11:14:28;3.23;;;1.17;;
9080;SDS011;13509;50.760;6.080;2024-02-15T11:16:58;1.53;;;1.07;;
9080;SDS011;13509;50.760;6.080;2024-02-15T11:19:42;3.67;;;1.00;;
9080;SDS011;13509;50.760;6.080;2024-02-15T11:22:13;5.67;;;1.30;;
9080;SDS011;13509;50.760;6.080;2024-02-15T11:24:46;3.00;;;1.10;;
9080;SDS011;13509;50.760;6.080;2024-02-15T11:27:25;2.30;;;1.00;;
9080;SDS011;13509;50.760;6.080;2024-02-15T11:29:54;4.93;;;1.10;;
9080;SDS011;13509;50.760;6.080;2024-02-15T11:32:34;1.57;;;0.83;;
9080;SDS011;13509;50.760;6.080;2024-02-15T11:35:06;3.17;;;1.13;;
9080;SDS011;13509;50.760;6.080;2024-02-15T11:37:51;2.27;;;1.23;;
9080;SDS011;13509;50.760;6.080;2024-02-15T11:40:20;2.93;;;1.23;;
9080;SDS011;13509;50.760;6.080;2024-02-15T11:42:51;2.10;;;1.07;;
9080;SDS011;13509;50.760;6.080;2024-02-15T11:45:20;4.03;;;1.10;;
9080;SDS011;13509;50.760;6.080;2024-02-15T11:47:49;1.87;;;1.00;;
9080;SDS011;13509;50.760;6.080;2024-02-15T11:50:18;1.63;;;1.10;;
9080;SDS011;13509;50.760;6.080;2024-02-15T11:52:48;2.53;;;1.27;;
9080;SDS011;13509;50.760;6.080;2024-02-15T11:55:20;2.37;;;1.00;;
9080;SDS011;13509;50.760;6.080;2024-02-15T11:57:56;1.37;;;1.00;;
9080;SDS011;13509;50.760;6.080;2024-02-15T12:00:31;3.33;;;1.20;;
9080;SDS011;13509;50.760;6.080;2024-02-15T12:03:18;1.67;;;0.90;;
9080;SDS011;13509;50.760;6.080;2024-02-15T12:06:11;3.53;;;1.20;;
9080;SDS011;13509;50.760;6.080;2024-02-15T12:08:54;1.87;;;0.90;;
9080;SDS011;13509;50.760;6.080;2024-02-15T12:11:57;3.03;;;1.13;;
9080;SDS011;13509;50.760;6.080;2024-02-15T12:14:46;1.23;;;1.10;;
9080;SDS011;13509;50.760;6.080;2024-02-15T12:17:32;2.23;;;1.23;;
9080;SDS011;13509;50.760;6.080;2024-02-15T12:20:18;2.57;;;1.40;;
9080;SDS011;13509;50.760;6.080;2024-02-15T12:22:51;2.50;;;1.07;;
9080;SDS011;13509;50.760;6.080;2024-02-15T12:25:20;3.77;;;1.07;;
9080;SDS011;13509;50.760;6.080;2024-02-15T12:27:52;2.80;;;1.20;;
9080;SDS011;13509;50.760;6.080;2024-02-15T12:30:22;1.30;;;1.00;;
9080;SDS011;13509;50.760;6.080;2024-02-15T12:32:52;1.63;;;1.10;;
9080;SDS011;13509;50.760;6.080;2024-02-15T12:35:21;0.83;;;0.80;;
9080;SDS011;13509;50.760;6.080;2024-02-15T12:38:00;1.00;;;0.90;;
9080;SDS011;13509;50.760;6.080;2024-02-15T12:40:32;2.27;;;0.90;;
9080;SDS011;13509;50.760;6.080;2024-02-15T12:43:01;0.77;;;0.77;;
9080;SDS011;13509;50.760;6.080;2024-02-15T12:45:32;1.73;;;1.00;;
9080;SDS011;13509;50.760;6.080;2024-02-15T12:48:04;1.87;;;1.07;;
9080;SDS011;13509;50.760;6.080;2024-02-15T12:50:33;2.20;;;1.20;;
9080;SDS011;13509;50.760;6.080;2024-02-15T12:53:02;2.20;;;1.00;;
9080;SDS011;13509;50.760;6.080;2024-02-15T12:55:33;3.13;;;1.10;;
9080;SDS011;13509;50.760;6.080;2024-02-15T12:58:02;1.53;;;0.97;;
9080;SDS011;13509;50.760;6.080;2024-02-15T13:00:36;2.37;;;1.00;;
9080;SDS011;13509;50.760;6.080;2024-02-15T13:03:07;3.97;;;1.03;;
9080;SDS011;13509;50.760;6.080;2024-02-15T13:05:36;3.37;;;1.00;;
9080;SDS011;13509;50.760;6.080;2024-02-15T13:08:06;1.33;;;1.00;;
9080;SDS011;13509;50.760;6.080;2024-02-15T13:10:40;1.50;;;1.07;;
9080;SDS011;13509;50.760;6.080;2024-02-15T13:13:09;1.73;;;0.93;;
9080;SDS011;13509;50.760;6.080;2024-02-15T13:15:39;4.60;;;1.40;;
9080;SDS011;13509;50.760;6.080;2024-02-15T13:18:08;2.53;;;1.27;;
9080;SDS011;13509;50.760;6.080;2024-02-15T13:20:40;1.53;;;1.07;;
9080;SDS011;13509;50.760;6.080;2024-02-15T13:23:09;4.60;;;1.10;;
9080;SDS011;13509;50.760;6.080;2024-02-15T13:25:42;1.60;;;0.97;;
9080;SDS011;13509;50.760;6.080;2024-02-15T13:28:11;1.30;;;1.10;;
9080;SDS011;13509;50.760;6.080;2024-02-15T13:30:42;1.73;;;1.13;;
9080;SDS011;13509;50.760;6.080;2024-02-15T13:33:12;4.00;;;1.10;;
9080;SDS011;13509;50.760;6.080;2024-02-15T13:35:41;1.30;;;1.10;;
9080;SDS011;13509;50.760;6.080;2024-02-15T13:38:09;4.57;;;1.30;;
9080;SDS011;13509;50.760;6.080;2024-02-15T13:40:42;1.47;;;1.00;;
9080;SDS011;13509;50.760;6.080;2024-02-15T13:43:11;2.37;;;1.00;;
9080;SDS011;13509;50.760;6.080;2024-02-15T13:45:40;2.53;;;1.20;;
9080;SDS011;13509;50.760;6.080;2024-02-15T13:48:11;2.70;;;1.10;;
9080;SDS011;13509;50.760;6.080;2024-02-15T13:50:41;1.90;;;0.80;;
9080;SDS011;13509;50.760;6.080;2024-02-15T13:53:11;3.57;;;1.10;;
9080;SDS011;13509;50.760;6.080;2024-02-15T13:55:41;2.30;;;1.07;;
9080;SDS011;13509;50.760;6.080;2024-02-15T13:58:09;1.30;;;1.00;;
9080;SDS011;13509;50.760;6.080;2024-02-15T14:00:39;3.00;;;1.20;;
9080;SDS011;13509;50.760;6.080;2024-02-15T14:03:10;1.93;;;1.10;;
9080;SDS011;13509;50.760;6.080;2024-02-15T14:05:43;3.67;;;1.20;;
9080;SDS011;13509;50.760;6.080;2024-02-15T14:08:14;1.57;;;0.97;;
9080;SDS011;13509;50.760;6.080;2024-02-15T14:10:43;2.27;;;0.90;;
9080;SDS011;13509;50.760;6.080;2024-02-15T14:13:11;1.43;;;1.10;;
9080;SDS011;13509;50.760;6.080;2024-02-15T14:15:41;1.37;;;0.90;;
9080;SDS011;13509;50.760;6.080;2024-02-15T14:18:10;1.70;;;1.00;;
9080;SDS011;13509;50.760;6.080;2024-02-15T14:20:41;2.23;;;1.00;;
9080;SDS011;13509;50.760;6.080;2024-02-15T14:23:11;2.83;;;1.13;;
9080;SDS011;13509;50.760;6.080;2024-02-15T14:25:41;3.13;;;1.20;;
9080;SDS011;13509;50.760;6.080;2024-02-15T14:28:11;2.50;;;1.20;;
9080;SDS011;13509;50.760;6.080;2024-02-15T14:30:40;2.27;;;0.93;;
9080;SDS011;13509;50.760;6.080;2024-02-15T14:33:26;2.17;;;1.30;;
9080;SDS011;13509;50.760;6.080;2024-02-15T14:35:57;2.40;;;1.00;;
9080;SDS011;13509;50.760;6.080;2024-02-15T14:38:28;2.27;;;1.10;;
9080;SDS011;13509;50.760;6.080;2024-02-15T14:40:57;4.60;;;1.10;;
9080;SDS011;13509;50.760;6.080;2024-02-15T14:43:27;1.90;;;1.03;;
9080;SDS011;13509;50.760;6.080;2024-02-15T14:45:55;2.17;;;0.97;;
9080;SDS011;13509;50.760;6.080;2024-02-15T14:48:25;1.70;;;1.00;;
9080;SDS011;13509;50.760;6.080;2024-02-15T14:50:53;2.67;;;1.10;;
9080;SDS011;13509;50.760;6.080;2024-02-15T14:53:23;1.63;;;1.00;;
9080;SDS011;13509;50.760;6.080;2024-02-15T14:55:53;3.40;;;1.27;;
9080;SDS011;13509;50.760;6.080;2024-02-15T14:58:21;1.03;;;0.90;;
9080;SDS011;13509;50.760;6.080;2024-02-15T15:00:49;1.40;;;0.87;;
9080;SDS011;13509;50.760;6.080;2024-02-15T15:03:30;1.53;;;0.97;;
9080;SDS011;13509;50.760;6.080;2024-02-15T15:06:00;1.87;;;1.10;;
9080;SDS011;13509;50.760;6.080;2024-02-15T15:08:46;2.83;;;1.07;;
9080;SDS011;13509;50.760;6.080;2024-02-15T15:11:35;1.87;;;1.10;;
9080;SDS011;13509;50.760;6.080;2024-02-15T15:14:21;1.13;;;0.97;;
9080;SDS011;13509;50.760;6.080;2024-02-15T15:16:50;1.53;;;1.00;;
9080;SDS011;13509;50.760;6.080;2024-02-15T15:19:19;0.87;;;0.83;;
9080;SDS011;13509;50.760;6.080;2024-02-15T15:21:47;1.57;;;1.20;;